sensor_id;sensor_type;location;lat;lon;timestamp;temperature;humidity
19680;DHT22;9989;48.962;9.182;2022-09-09T00:04:29;17.40;99.90
19680;DHT22;9989;48.962;9.182;2022-09-09T00:07:03;17.40;99.90
19680;DHT22;9989;48.962;9.182;2022-09-09T00:09:33;17.50;99.90
19680;DHT22;9989;48.962;9.182;2022-09-09T00:12:15;17.50;99.90
19680;DHT22;9989;48.962;9.182;2022-09-09T00:14:50;17.50;99.90
19680;DHT22;9989;48.962;9.182;2022-09-09T00:17:33;17.50;99.90
19680;DHT22;9989;48.962;9.182;2022-09-09T00:22:50;17.50;99.90
19680;DHT22;9989;48.962;9.182;2022-09-09T00:25:26;17.50;99.90
19680;DHT22;9989;48.962;9.182;2022-09-09T00:27:54;17.50;99.90
19680;DHT22;9989;48.962;9.182;2022-09-09T00:30:31;17.50;99.90
19680;DHT22;9989;48.962;9.182;2022-09-09T00:33:10;17.50;99.90
19680;DHT22;9989;48.962;9.182;2022-09-09T00:35:39;17.50;99.90
19680;DHT22;9989;48.962;9.182;2022-09-09T00:43:36;17.40;99.90
19680;DHT22;9989;48.962;9.182;2022-09-09T00:49:20;17.40;99.90
19680;DHT22;9989;48.962;9.182;2022-09-09T00:55:27;17.40;99.90
19680;DHT22;9989;48.962;9.182;2022-09-09T00:57:54;17.40;99.90
19680;DHT22;9989;48.962;9.182;2022-09-09T01:00:29;17.40;99.90
19680;DHT22;9989;48.962;9.182;2022-09-09T01:10:51;17.50;99.90
19680;DHT22;9989;48.962;9.182;2022-09-09T01:13:24;17.50;99.90
19680;DHT22;9989;48.962;9.182;2022-09-09T01:18:37;17.50;99.90
19680;DHT22;9989;48.962;9.182;2022-09-09T01:23:55;17.60;99.90
19680;DHT22;9989;48.962;9.182;2022-09-09T01:26:30;17.50;99.90
19680;DHT22;9989;48.962;9.182;2022-09-09T01:28:57;17.50;99.90
19680;DHT22;9989;48.962;9.182;2022-09-09T01:31:53;17.50;99.90
19680;DHT22;9989;48.962;9.182;2022-09-09T01:34:19;17.50;99.90
19680;DHT22;9989;48.962;9.182;2022-09-09T01:39:23;17.50;99.90
19680;DHT22;9989;48.962;9.182;2022-09-09T01:41:48;17.40;99.90
19680;DHT22;9989;48.962;9.182;2022-09-09T01:44:14;17.40;99.90
19680;DHT22;9989;48.962;9.182;2022-09-09T01:46:40;17.40;99.90
19680;DHT22;9989;48.962;9.182;2022-09-09T01:49:07;17.40;99.90
19680;DHT22;9989;48.962;9.182;2022-09-09T01:51:34;17.40;99.90
19680;DHT22;9989;48.962;9.182;2022-09-09T01:54:01;17.40;99.90
19680;DHT22;9989;48.962;9.182;2022-09-09T02:02:18;17.40;99.90
19680;DHT22;9989;48.962;9.182;2022-09-09T02:05:02;17.40;99.90
19680;DHT22;9989;48.962;9.182;2022-09-09T02:07:42;17.40;99.90
19680;DHT22;9989;48.962;9.182;2022-09-09T02:10:20;17.40;99.90
19680;DHT22;9989;48.962;9.182;2022-09-09T02:13:07;17.40;99.90
19680;DHT22;9989;48.962;9.182;2022-09-09T02:18:07;17.30;99.90
19680;DHT22;9989;48.962;9.182;2022-09-09T02:20:36;17.30;99.90
19680;DHT22;9989;48.962;9.182;2022-09-09T02:23:04;17.30;99.90
19680;DHT22;9989;48.962;9.182;2022-09-09T02:25:30;17.30;99.90
19680;DHT22;9989;48.962;9.182;2022-09-09T02:27:57;17.20;99.90
19680;DHT22;9989;48.962;9.182;2022-09-09T02:30:24;17.10;99.90
19680;DHT22;9989;48.962;9.182;2022-09-09T02:32:52;17.10;99.90
19680;DHT22;9989;48.962;9.182;2022-09-09T02:35:23;17.00;99.90
19680;DHT22;9989;48.962;9.182;2022-09-09T02:37:51;17.00;99.90
19680;DHT22;9989;48.962;9.182;2022-09-09T02:40:18;16.90;99.90
19680;DHT22;9989;48.962;9.182;2022-09-09T02:42:46;16.80;99.90
19680;DHT22;9989;48.962;9.182;2022-09-09T02:45:15;16.80;99.90
19680;DHT22;9989;48.962;9.182;2022-09-09T02:53:11;16.70;99.90
19680;DHT22;9989;48.962;9.182;2022-09-09T02:56:04;16.60;99.90
19680;DHT22;9989;48.962;9.182;2022-09-09T02:58:30;16.60;99.90
19680;DHT22;9989;48.962;9.182;2022-09-09T03:00:56;16.50;99.90
19680;DHT22;9989;48.962;9.182;2022-09-09T03:03:23;16.50;99.90
19680;DHT22;9989;48.962;9.182;2022-09-09T03:05:49;16.50;99.90
19680;DHT22;9989;48.962;9.182;2022-09-09T03:08:15;16.50;99.90
19680;DHT22;9989;48.962;9.182;2022-09-09T03:10:41;16.50;99.90
19680;DHT22;9989;48.962;9.182;2022-09-09T03:13:07;16.50;99.90
19680;DHT22;9989;48.962;9.182;2022-09-09T03:15:33;16.50;99.90
19680;DHT22;9989;48.962;9.182;2022-09-09T03:17:59;16.50;99.90
19680;DHT22;9989;48.962;9.182;2022-09-09T03:20:26;16.50;99.90
19680;DHT22;9989;48.962;9.182;2022-09-09T03:22:53;16.50;99.90
19680;DHT22;9989;48.962;9.182;2022-09-09T03:25:20;16.40;99.90
19680;DHT22;9989;48.962;9.182;2022-09-09T03:27:46;16.40;99.90
19680;DHT22;9989;48.962;9.182;2022-09-09T03:30:11;16.30;99.90
19680;DHT22;9989;48.962;9.182;2022-09-09T03:32:37;16.30;99.90
19680;DHT22;9989;48.962;9.182;2022-09-09T03:35:03;16.30;99.90
19680;DHT22;9989;48.962;9.182;2022-09-09T03:37:29;16.20;99.90
19680;DHT22;9989;48.962;9.182;2022-09-09T03:39:54;16.20;99.90
19680;DHT22;9989;48.962;9.182;2022-09-09T03:42:20;16.20;99.90
19680;DHT22;9989;48.962;9.182;2022-09-09T03:44:48;16.20;99.90
19680;DHT22;9989;48.962;9.182;2022-09-09T03:47:16;16.20;99.90
19680;DHT22;9989;48.962;9.182;2022-09-09T03:49:42;16.20;99.90
19680;DHT22;9989;48.962;9.182;2022-09-09T03:52:08;16.20;99.90
19680;DHT22;9989;48.962;9.182;2022-09-09T03:54:34;16.20;99.90
19680;DHT22;9989;48.962;9.182;2022-09-09T03:57:01;16.20;99.90
19680;DHT22;9989;48.962;9.182;2022-09-09T03:59:26;16.20;99.90
19680;DHT22;9989;48.962;9.182;2022-09-09T04:01:52;16.20;99.90
19680;DHT22;9989;48.962;9.182;2022-09-09T04:04:18;16.30;99.90
19680;DHT22;9989;48.962;9.182;2022-09-09T04:06:45;16.30;99.90
19680;DHT22;9989;48.962;9.182;2022-09-09T04:09:11;16.30;99.90
19680;DHT22;9989;48.962;9.182;2022-09-09T04:11:36;16.40;99.90
19680;DHT22;9989;48.962;9.182;2022-09-09T04:14:02;16.40;99.90
19680;DHT22;9989;48.962;9.182;2022-09-09T04:16:28;16.40;99.90
19680;DHT22;9989;48.962;9.182;2022-09-09T04:18:54;16.40;99.90
19680;DHT22;9989;48.962;9.182;2022-09-09T04:21:21;16.40;99.90
19680;DHT22;9989;48.962;9.182;2022-09-09T04:23:47;16.40;99.90
19680;DHT22;9989;48.962;9.182;2022-09-09T04:26:12;16.40;99.90
19680;DHT22;9989;48.962;9.182;2022-09-09T04:28:38;16.40;99.90
19680;DHT22;9989;48.962;9.182;2022-09-09T04:31:06;16.40;99.90
19680;DHT22;9989;48.962;9.182;2022-09-09T04:33:32;16.40;99.90
19680;DHT22;9989;48.962;9.182;2022-09-09T04:35:57;16.40;99.90
19680;DHT22;9989;48.962;9.182;2022-09-09T04:38:23;16.40;99.90
19680;DHT22;9989;48.962;9.182;2022-09-09T04:40:50;16.40;99.90
19680;DHT22;9989;48.962;9.182;2022-09-09T04:43:17;16.40;99.90
19680;DHT22;9989;48.962;9.182;2022-09-09T04:45:47;16.50;99.90
19680;DHT22;9989;48.962;9.182;2022-09-09T04:48:13;16.50;99.90
19680;DHT22;9989;48.962;9.182;2022-09-09T04:50:39;16.50;99.90
19680;DHT22;9989;48.962;9.182;2022-09-09T04:53:06;16.50;99.90
19680;DHT22;9989;48.962;9.182;2022-09-09T04:55:32;16.50;99.90
19680;DHT22;9989;48.962;9.182;2022-09-09T04:58:06;16.60;99.90
19680;DHT22;9989;48.962;9.182;2022-09-09T05:00:33;16.60;99.90
19680;DHT22;9989;48.962;9.182;2022-09-09T05:03:02;16.60;99.90
19680;DHT22;9989;48.962;9.182;2022-09-09T05:05:29;16.60;99.90
19680;DHT22;9989;48.962;9.182;2022-09-09T05:08:06;16.60;99.90
19680;DHT22;9989;48.962;9.182;2022-09-09T05:10:32;16.70;99.90
19680;DHT22;9989;48.962;9.182;2022-09-09T05:12:58;16.70;99.90
19680;DHT22;9989;48.962;9.182;2022-09-09T05:15:24;16.80;99.90
19680;DHT22;9989;48.962;9.182;2022-09-09T05:17:49;16.80;99.90
19680;DHT22;9989;48.962;9.182;2022-09-09T05:20:16;16.80;99.90
19680;DHT22;9989;48.962;9.182;2022-09-09T05:22:41;16.90;99.90
19680;DHT22;9989;48.962;9.182;2022-09-09T05:25:07;16.90;99.90
19680;DHT22;9989;48.962;9.182;2022-09-09T05:27:36;16.90;99.90
19680;DHT22;9989;48.962;9.182;2022-09-09T05:30:03;17.00;99.90
19680;DHT22;9989;48.962;9.182;2022-09-09T05:32:30;16.90;99.90
19680;DHT22;9989;48.962;9.182;2022-09-09T05:34:57;17.00;99.90
19680;DHT22;9989;48.962;9.182;2022-09-09T05:37:24;17.00;99.90
19680;DHT22;9989;48.962;9.182;2022-09-09T05:39:49;17.10;99.90
19680;DHT22;9989;48.962;9.182;2022-09-09T05:42:18;17.10;99.90
19680;DHT22;9989;48.962;9.182;2022-09-09T05:44:44;17.20;99.90
19680;DHT22;9989;48.962;9.182;2022-09-09T05:47:10;17.30;99.90
19680;DHT22;9989;48.962;9.182;2022-09-09T05:49:35;17.30;99.90
19680;DHT22;9989;48.962;9.182;2022-09-09T05:52:02;17.40;99.90
19680;DHT22;9989;48.962;9.182;2022-09-09T05:54:29;17.40;99.90
19680;DHT22;9989;48.962;9.182;2022-09-09T05:56:55;17.50;99.90
19680;DHT22;9989;48.962;9.182;2022-09-09T05:59:20;17.50;99.90
19680;DHT22;9989;48.962;9.182;2022-09-09T06:01:48;17.60;99.90
19680;DHT22;9989;48.962;9.182;2022-09-09T06:04:14;17.60;99.90
19680;DHT22;9989;48.962;9.182;2022-09-09T06:06:39;17.70;99.90
19680;DHT22;9989;48.962;9.182;2022-09-09T06:09:08;17.80;99.90
19680;DHT22;9989;48.962;9.182;2022-09-09T06:11:38;17.80;99.90
19680;DHT22;9989;48.962;9.182;2022-09-09T06:14:05;17.80;99.90
19680;DHT22;9989;48.962;9.182;2022-09-09T06:16:31;17.80;99.90
19680;DHT22;9989;48.962;9.182;2022-09-09T06:19:01;17.70;99.90
19680;DHT22;9989;48.962;9.182;2022-09-09T06:21:36;17.70;99.90
19680;DHT22;9989;48.962;9.182;2022-09-09T06:24:06;17.70;99.90
19680;DHT22;9989;48.962;9.182;2022-09-09T06:26:34;17.80;99.90
19680;DHT22;9989;48.962;9.182;2022-09-09T06:29:02;17.80;99.90
19680;DHT22;9989;48.962;9.182;2022-09-09T06:31:30;17.90;99.90
19680;DHT22;9989;48.962;9.182;2022-09-09T06:33:57;17.90;99.90
19680;DHT22;9989;48.962;9.182;2022-09-09T06:36:31;18.00;99.90
19680;DHT22;9989;48.962;9.182;2022-09-09T06:38:57;18.00;99.90
19680;DHT22;9989;48.962;9.182;2022-09-09T06:41:27;18.10;99.90
19680;DHT22;9989;48.962;9.182;2022-09-09T06:43:53;18.20;99.90
19680;DHT22;9989;48.962;9.182;2022-09-09T06:46:20;18.20;99.90
19680;DHT22;9989;48.962;9.182;2022-09-09T06:48:49;18.30;99.90
19680;DHT22;9989;48.962;9.182;2022-09-09T06:51:19;18.30;99.90
19680;DHT22;9989;48.962;9.182;2022-09-09T06:53:56;18.40;99.90
19680;DHT22;9989;48.962;9.182;2022-09-09T06:56:27;18.40;99.90
19680;DHT22;9989;48.962;9.182;2022-09-09T06:58:55;18.40;99.90
19680;DHT22;9989;48.962;9.182;2022-09-09T07:01:33;18.50;99.90
19680;DHT22;9989;48.962;9.182;2022-09-09T07:04:00;18.50;99.90
19680;DHT22;9989;48.962;9.182;2022-09-09T07:06:34;18.60;99.90
19680;DHT22;9989;48.962;9.182;2022-09-09T07:09:02;18.70;99.90
19680;DHT22;9989;48.962;9.182;2022-09-09T07:11:31;18.70;99.90
19680;DHT22;9989;48.962;9.182;2022-09-09T07:13:58;18.70;99.90
19680;DHT22;9989;48.962;9.182;2022-09-09T07:16:24;18.80;99.90
19680;DHT22;9989;48.962;9.182;2022-09-09T07:18:51;18.80;99.90
19680;DHT22;9989;48.962;9.182;2022-09-09T07:21:17;19.00;99.90
19680;DHT22;9989;48.962;9.182;2022-09-09T07:23:43;19.10;99.90
19680;DHT22;9989;48.962;9.182;2022-09-09T07:26:18;19.30;99.90
19680;DHT22;9989;48.962;9.182;2022-09-09T07:28:51;19.40;99.90
19680;DHT22;9989;48.962;9.182;2022-09-09T07:31:28;19.50;99.90
19680;DHT22;9989;48.962;9.182;2022-09-09T07:33:56;19.50;99.90
19680;DHT22;9989;48.962;9.182;2022-09-09T07:36:30;19.50;99.90
19680;DHT22;9989;48.962;9.182;2022-09-09T07:38:57;19.60;99.90
19680;DHT22;9989;48.962;9.182;2022-09-09T07:41:26;19.70;99.90
19680;DHT22;9989;48.962;9.182;2022-09-09T07:43:52;19.80;99.90
19680;DHT22;9989;48.962;9.182;2022-09-09T07:46:26;19.90;99.90
19680;DHT22;9989;48.962;9.182;2022-09-09T07:48:53;20.10;99.90
19680;DHT22;9989;48.962;9.182;2022-09-09T07:51:23;20.20;99.90
19680;DHT22;9989;48.962;9.182;2022-09-09T07:53:54;20.40;99.90
19680;DHT22;9989;48.962;9.182;2022-09-09T07:56:21;20.60;99.90
19680;DHT22;9989;48.962;9.182;2022-09-09T07:58:50;20.70;99.90
19680;DHT22;9989;48.962;9.182;2022-09-09T08:01:21;21.00;99.90
19680;DHT22;9989;48.962;9.182;2022-09-09T08:03:53;21.20;99.90
19680;DHT22;9989;48.962;9.182;2022-09-09T08:06:19;21.40;99.90
19680;DHT22;9989;48.962;9.182;2022-09-09T08:08:45;21.40;99.90
19680;DHT22;9989;48.962;9.182;2022-09-09T08:11:15;21.50;99.90
19680;DHT22;9989;48.962;9.182;2022-09-09T08:13:42;21.60;99.90
19680;DHT22;9989;48.962;9.182;2022-09-09T08:16:16;21.70;99.90
19680;DHT22;9989;48.962;9.182;2022-09-09T08:18:42;21.80;99.90
19680;DHT22;9989;48.962;9.182;2022-09-09T08:21:16;21.90;99.90
19680;DHT22;9989;48.962;9.182;2022-09-09T08:23:44;21.90;99.90
19680;DHT22;9989;48.962;9.182;2022-09-09T08:26:17;21.90;99.90
19680;DHT22;9989;48.962;9.182;2022-09-09T08:28:48;22.00;99.90
19680;DHT22;9989;48.962;9.182;2022-09-09T08:31:18;22.10;99.90
19680;DHT22;9989;48.962;9.182;2022-09-09T08:33:44;22.10;99.90
19680;DHT22;9989;48.962;9.182;2022-09-09T08:36:16;22.10;99.90
19680;DHT22;9989;48.962;9.182;2022-09-09T08:38:42;22.30;99.90
19680;DHT22;9989;48.962;9.182;2022-09-09T08:44:09;22.50;99.90
19680;DHT22;9989;48.962;9.182;2022-09-09T08:46:45;22.60;99.90
19680;DHT22;9989;48.962;9.182;2022-09-09T08:52:29;22.70;99.90
19680;DHT22;9989;48.962;9.182;2022-09-09T08:57:53;22.70;98.80
19680;DHT22;9989;48.962;9.182;2022-09-09T09:00:20;22.70;99.10
19680;DHT22;9989;48.962;9.182;2022-09-09T09:06:06;22.90;99.00
19680;DHT22;9989;48.962;9.182;2022-09-09T09:12:00;23.30;98.30
19680;DHT22;9989;48.962;9.182;2022-09-09T09:14:33;23.50;96.90
19680;DHT22;9989;48.962;9.182;2022-09-09T09:19:30;23.20;96.90
19680;DHT22;9989;48.962;9.182;2022-09-09T09:27:00;22.80;97.40
19680;DHT22;9989;48.962;9.182;2022-09-09T09:29:32;22.80;96.30
19680;DHT22;9989;48.962;9.182;2022-09-09T09:32:02;22.80;96.40
19680;DHT22;9989;48.962;9.182;2022-09-09T09:34:28;22.80;94.50
19680;DHT22;9989;48.962;9.182;2022-09-09T09:36:56;22.90;93.40
19680;DHT22;9989;48.962;9.182;2022-09-09T09:39:33;22.90;92.90
19680;DHT22;9989;48.962;9.182;2022-09-09T09:42:11;22.90;91.80
19680;DHT22;9989;48.962;9.182;2022-09-09T09:44:39;22.90;91.90
19680;DHT22;9989;48.962;9.182;2022-09-09T09:47:11;23.00;92.30
19680;DHT22;9989;48.962;9.182;2022-09-09T09:49:37;23.10;91.50
19680;DHT22;9989;48.962;9.182;2022-09-09T09:52:04;23.20;91.80
19680;DHT22;9989;48.962;9.182;2022-09-09T09:54:34;23.30;91.40
19680;DHT22;9989;48.962;9.182;2022-09-09T09:57:12;23.40;91.60
19680;DHT22;9989;48.962;9.182;2022-09-09T09:59:39;23.50;91.10
19680;DHT22;9989;48.962;9.182;2022-09-09T10:02:15;23.50;91.10
19680;DHT22;9989;48.962;9.182;2022-09-09T10:04:41;23.60;91.00
19680;DHT22;9989;48.962;9.182;2022-09-09T10:07:16;23.70;88.20
19680;DHT22;9989;48.962;9.182;2022-09-09T10:09:43;23.70;88.70
19680;DHT22;9989;48.962;9.182;2022-09-09T10:20:59;23.50;91.30
19680;DHT22;9989;48.962;9.182;2022-09-09T10:31:39;22.80;94.50
19680;DHT22;9989;48.962;9.182;2022-09-09T10:34:31;22.70;94.60
19680;DHT22;9989;48.962;9.182;2022-09-09T10:37:02;22.70;94.80
19680;DHT22;9989;48.962;9.182;2022-09-09T10:39:38;22.80;94.40
19680;DHT22;9989;48.962;9.182;2022-09-09T10:42:15;23.10;94.30
19680;DHT22;9989;48.962;9.182;2022-09-09T10:55:27;23.80;91.50
19680;DHT22;9989;48.962;9.182;2022-09-09T10:57:58;23.70;92.10
19680;DHT22;9989;48.962;9.182;2022-09-09T11:00:39;23.60;92.10
19680;DHT22;9989;48.962;9.182;2022-09-09T11:03:05;23.40;92.40
19680;DHT22;9989;48.962;9.182;2022-09-09T11:05:42;23.30;92.30
19680;DHT22;9989;48.962;9.182;2022-09-09T11:18:48;22.70;93.50
19680;DHT22;9989;48.962;9.182;2022-09-09T11:21:21;22.50;94.50
19680;DHT22;9989;48.962;9.182;2022-09-09T11:23:59;22.30;94.70
19680;DHT22;9989;48.962;9.182;2022-09-09T11:26:33;22.10;95.30
19680;DHT22;9989;48.962;9.182;2022-09-09T11:38:10;21.20;96.50
19680;DHT22;9989;48.962;9.182;2022-09-09T11:40:38;21.00;97.50
19680;DHT22;9989;48.962;9.182;2022-09-09T11:43:12;21.00;97.00
19680;DHT22;9989;48.962;9.182;2022-09-09T11:45:41;20.80;97.30
19680;DHT22;9989;48.962;9.182;2022-09-09T11:48:36;20.70;97.80
19680;DHT22;9989;48.962;9.182;2022-09-09T11:51:08;20.70;97.60
19680;DHT22;9989;48.962;9.182;2022-09-09T11:53:36;20.70;98.00
19680;DHT22;9989;48.962;9.182;2022-09-09T11:56:13;20.70;97.60
19680;DHT22;9989;48.962;9.182;2022-09-09T11:59:00;20.70;98.80
19680;DHT22;9989;48.962;9.182;2022-09-09T12:01:40;20.80;98.10
19680;DHT22;9989;48.962;9.182;2022-09-09T12:09:56;21.40;96.10
19680;DHT22;9989;48.962;9.182;2022-09-09T12:12:27;21.80;96.00
19680;DHT22;9989;48.962;9.182;2022-09-09T12:17:28;23.00;93.50
19680;DHT22;9989;48.962;9.182;2022-09-09T12:20:11;23.50;93.20
19680;DHT22;9989;48.962;9.182;2022-09-09T12:22:40;24.00;90.70
19680;DHT22;9989;48.962;9.182;2022-09-09T12:28:17;24.70;88.20
19680;DHT22;9989;48.962;9.182;2022-09-09T12:30:50;25.00;84.70
19680;DHT22;9989;48.962;9.182;2022-09-09T12:33:18;25.10;83.20
19680;DHT22;9989;48.962;9.182;2022-09-09T12:35:48;25.40;81.10
19680;DHT22;9989;48.962;9.182;2022-09-09T12:38:36;25.70;81.30
19680;DHT22;9989;48.962;9.182;2022-09-09T12:41:02;25.90;78.20
19680;DHT22;9989;48.962;9.182;2022-09-09T12:43:28;25.90;76.50
19680;DHT22;9989;48.962;9.182;2022-09-09T12:45:58;25.70;76.60
19680;DHT22;9989;48.962;9.182;2022-09-09T12:48:33;25.70;74.30
19680;DHT22;9989;48.962;9.182;2022-09-09T12:51:00;25.70;72.60
19680;DHT22;9989;48.962;9.182;2022-09-09T12:53:30;25.50;72.60
19680;DHT22;9989;48.962;9.182;2022-09-09T12:55:59;25.50;73.60
19680;DHT22;9989;48.962;9.182;2022-09-09T12:58:25;25.60;74.80
19680;DHT22;9989;48.962;9.182;2022-09-09T13:00:55;25.80;73.10
19680;DHT22;9989;48.962;9.182;2022-09-09T13:03:22;26.00;72.80
19680;DHT22;9989;48.962;9.182;2022-09-09T13:05:49;26.20;71.90
19680;DHT22;9989;48.962;9.182;2022-09-09T13:08:16;26.50;71.00
19680;DHT22;9989;48.962;9.182;2022-09-09T13:10:54;26.70;70.70
19680;DHT22;9989;48.962;9.182;2022-09-09T13:13:27;27.00;71.30
19680;DHT22;9989;48.962;9.182;2022-09-09T13:15:59;27.30;70.40
19680;DHT22;9989;48.962;9.182;2022-09-09T13:18:36;27.60;69.20
19680;DHT22;9989;48.962;9.182;2022-09-09T13:21:03;27.90;68.50
19680;DHT22;9989;48.962;9.182;2022-09-09T13:23:31;28.10;67.60
19680;DHT22;9989;48.962;9.182;2022-09-09T13:26:21;27.90;67.50
19680;DHT22;9989;48.962;9.182;2022-09-09T13:28:48;27.90;68.20
19680;DHT22;9989;48.962;9.182;2022-09-09T13:31:28;28.10;67.80
19680;DHT22;9989;48.962;9.182;2022-09-09T13:33:54;27.90;67.30
19680;DHT22;9989;48.962;9.182;2022-09-09T13:36:32;28.30;66.90
19680;DHT22;9989;48.962;9.182;2022-09-09T13:39:01;29.00;64.80
19680;DHT22;9989;48.962;9.182;2022-09-09T13:41:43;29.60;63.10
19680;DHT22;9989;48.962;9.182;2022-09-09T13:44:34;30.20;61.00
19680;DHT22;9989;48.962;9.182;2022-09-09T13:47:05;30.70;60.00
19680;DHT22;9989;48.962;9.182;2022-09-09T13:49:31;31.30;58.10
19680;DHT22;9989;48.962;9.182;2022-09-09T13:52:08;31.70;54.60
19680;DHT22;9989;48.962;9.182;2022-09-09T13:54:34;32.10;53.70
19680;DHT22;9989;48.962;9.182;2022-09-09T13:57:00;32.50;52.60
19680;DHT22;9989;48.962;9.182;2022-09-09T13:59:27;32.60;52.30
19680;DHT22;9989;48.962;9.182;2022-09-09T14:01:52;32.80;51.30
19680;DHT22;9989;48.962;9.182;2022-09-09T14:04:19;32.10;52.10
19680;DHT22;9989;48.962;9.182;2022-09-09T14:06:48;31.40;52.10
19680;DHT22;9989;48.962;9.182;2022-09-09T14:09:15;30.90;51.60
19680;DHT22;9989;48.962;9.182;2022-09-09T14:11:42;31.10;51.30
19680;DHT22;9989;48.962;9.182;2022-09-09T14:14:08;31.40;50.60
19680;DHT22;9989;48.962;9.182;2022-09-09T14:16:34;31.70;51.10
19680;DHT22;9989;48.962;9.182;2022-09-09T14:18:59;32.20;49.80
19680;DHT22;9989;48.962;9.182;2022-09-09T14:21:25;32.70;49.10
19680;DHT22;9989;48.962;9.182;2022-09-09T14:23:52;32.10;49.30
19680;DHT22;9989;48.962;9.182;2022-09-09T14:26:21;30.90;51.30
19680;DHT22;9989;48.962;9.182;2022-09-09T14:28:47;29.70;52.00
19680;DHT22;9989;48.962;9.182;2022-09-09T14:31:13;29.40;53.40
19680;DHT22;9989;48.962;9.182;2022-09-09T14:33:40;29.50;52.80
19680;DHT22;9989;48.962;9.182;2022-09-09T14:36:06;29.30;53.20
19680;DHT22;9989;48.962;9.182;2022-09-09T14:38:34;28.70;54.30
19680;DHT22;9989;48.962;9.182;2022-09-09T14:41:00;28.40;54.90
19680;DHT22;9989;48.962;9.182;2022-09-09T14:43:29;28.30;54.90
19680;DHT22;9989;48.962;9.182;2022-09-09T14:45:57;28.20;55.90
19680;DHT22;9989;48.962;9.182;2022-09-09T14:48:22;27.80;56.60
19680;DHT22;9989;48.962;9.182;2022-09-09T14:50:51;27.30;57.30
19680;DHT22;9989;48.962;9.182;2022-09-09T14:53:16;27.00;58.40
19680;DHT22;9989;48.962;9.182;2022-09-09T14:55:42;26.70;59.10
19680;DHT22;9989;48.962;9.182;2022-09-09T14:58:08;26.20;60.20
19680;DHT22;9989;48.962;9.182;2022-09-09T15:00:33;25.90;61.50
19680;DHT22;9989;48.962;9.182;2022-09-09T15:02:59;25.60;63.00
19680;DHT22;9989;48.962;9.182;2022-09-09T15:05:24;25.40;63.20
19680;DHT22;9989;48.962;9.182;2022-09-09T15:07:50;25.20;63.50
19680;DHT22;9989;48.962;9.182;2022-09-09T15:10:16;25.10;64.40
19680;DHT22;9989;48.962;9.182;2022-09-09T15:12:43;24.90;65.20
19680;DHT22;9989;48.962;9.182;2022-09-09T15:15:09;24.70;66.00
19680;DHT22;9989;48.962;9.182;2022-09-09T15:17:35;24.60;66.10
19680;DHT22;9989;48.962;9.182;2022-09-09T15:20:02;24.50;65.60
19680;DHT22;9989;48.962;9.182;2022-09-09T15:22:28;24.30;64.00
19680;DHT22;9989;48.962;9.182;2022-09-09T15:24:53;24.00;63.40
19680;DHT22;9989;48.962;9.182;2022-09-09T15:27:19;23.90;64.00
19680;DHT22;9989;48.962;9.182;2022-09-09T15:29:45;23.90;62.90
19680;DHT22;9989;48.962;9.182;2022-09-09T15:32:11;23.90;63.60
19680;DHT22;9989;48.962;9.182;2022-09-09T15:34:36;23.80;63.60
19680;DHT22;9989;48.962;9.182;2022-09-09T15:37:02;23.70;64.50
19680;DHT22;9989;48.962;9.182;2022-09-09T15:39:27;23.70;65.30
19680;DHT22;9989;48.962;9.182;2022-09-09T15:41:53;23.70;65.60
19680;DHT22;9989;48.962;9.182;2022-09-09T15:44:19;23.70;66.30
19680;DHT22;9989;48.962;9.182;2022-09-09T15:46:48;23.80;66.50
19680;DHT22;9989;48.962;9.182;2022-09-09T15:49:16;23.70;66.30
19680;DHT22;9989;48.962;9.182;2022-09-09T15:51:45;23.70;66.80
19680;DHT22;9989;48.962;9.182;2022-09-09T15:54:16;23.60;67.10
19680;DHT22;9989;48.962;9.182;2022-09-09T15:56:43;23.50;67.60
19680;DHT22;9989;48.962;9.182;2022-09-09T15:59:09;23.30;67.80
19680;DHT22;9989;48.962;9.182;2022-09-09T16:01:35;23.10;68.80
19680;DHT22;9989;48.962;9.182;2022-09-09T16:04:01;23.00;69.50
19680;DHT22;9989;48.962;9.182;2022-09-09T16:06:28;22.90;70.40
19680;DHT22;9989;48.962;9.182;2022-09-09T16:08:55;22.70;70.90
19680;DHT22;9989;48.962;9.182;2022-09-09T16:11:24;22.70;71.70
19680;DHT22;9989;48.962;9.182;2022-09-09T16:13:52;22.60;72.00
19680;DHT22;9989;48.962;9.182;2022-09-09T16:16:20;22.50;72.60
19680;DHT22;9989;48.962;9.182;2022-09-09T16:18:49;22.40;74.40
19680;DHT22;9989;48.962;9.182;2022-09-09T16:21:20;22.20;80.10
19680;DHT22;9989;48.962;9.182;2022-09-09T16:23:46;22.00;82.00
19680;DHT22;9989;48.962;9.182;2022-09-09T16:26:14;21.80;85.30
19680;DHT22;9989;48.962;9.182;2022-09-09T16:28:40;21.50;88.40
19680;DHT22;9989;48.962;9.182;2022-09-09T16:31:07;21.10;87.80
19680;DHT22;9989;48.962;9.182;2022-09-09T16:33:33;20.70;87.90
19680;DHT22;9989;48.962;9.182;2022-09-09T16:36:07;20.50;90.30
19680;DHT22;9989;48.962;9.182;2022-09-09T16:38:34;20.20;92.10
19680;DHT22;9989;48.962;9.182;2022-09-09T16:41:01;20.00;93.30
19680;DHT22;9989;48.962;9.182;2022-09-09T16:43:27;19.70;95.00
19680;DHT22;9989;48.962;9.182;2022-09-09T16:45:52;19.40;96.40
19680;DHT22;9989;48.962;9.182;2022-09-09T16:48:18;19.20;98.20
19680;DHT22;9989;48.962;9.182;2022-09-09T16:50:44;18.90;99.00
19680;DHT22;9989;48.962;9.182;2022-09-09T16:53:11;18.70;99.90
19680;DHT22;9989;48.962;9.182;2022-09-09T16:55:39;18.50;99.90
19680;DHT22;9989;48.962;9.182;2022-09-09T16:58:06;18.40;99.90
19680;DHT22;9989;48.962;9.182;2022-09-09T17:00:32;18.20;99.90
19680;DHT22;9989;48.962;9.182;2022-09-09T17:02:59;18.10;99.90
19680;DHT22;9989;48.962;9.182;2022-09-09T17:05:24;18.00;99.90
19680;DHT22;9989;48.962;9.182;2022-09-09T17:07:50;17.90;99.90
19680;DHT22;9989;48.962;9.182;2022-09-09T17:10:16;17.90;99.90
19680;DHT22;9989;48.962;9.182;2022-09-09T17:12:42;17.90;99.90
19680;DHT22;9989;48.962;9.182;2022-09-09T17:15:08;18.00;99.90
19680;DHT22;9989;48.962;9.182;2022-09-09T17:17:34;18.10;99.90
19680;DHT22;9989;48.962;9.182;2022-09-09T17:20:00;18.10;99.90
19680;DHT22;9989;48.962;9.182;2022-09-09T17:22:27;18.10;99.90
19680;DHT22;9989;48.962;9.182;2022-09-09T17:24:52;18.10;99.90
19680;DHT22;9989;48.962;9.182;2022-09-09T17:27:18;18.10;99.90
19680;DHT22;9989;48.962;9.182;2022-09-09T17:29:44;18.00;99.90
19680;DHT22;9989;48.962;9.182;2022-09-09T17:32:09;18.00;99.90
19680;DHT22;9989;48.962;9.182;2022-09-09T17:34:35;17.90;99.90
19680;DHT22;9989;48.962;9.182;2022-09-09T17:37:01;17.90;99.90
19680;DHT22;9989;48.962;9.182;2022-09-09T17:39:27;17.90;99.90
19680;DHT22;9989;48.962;9.182;2022-09-09T17:41:52;17.80;99.90
19680;DHT22;9989;48.962;9.182;2022-09-09T17:44:19;17.70;99.90
19680;DHT22;9989;48.962;9.182;2022-09-09T17:46:45;17.60;99.90
19680;DHT22;9989;48.962;9.182;2022-09-09T17:49:13;17.60;99.90
19680;DHT22;9989;48.962;9.182;2022-09-09T17:51:40;17.60;99.90
19680;DHT22;9989;48.962;9.182;2022-09-09T17:54:13;17.60;99.90
19680;DHT22;9989;48.962;9.182;2022-09-09T17:56:39;17.60;99.90
19680;DHT22;9989;48.962;9.182;2022-09-09T17:59:07;17.60;99.90
19680;DHT22;9989;48.962;9.182;2022-09-09T18:01:37;17.60;99.90
19680;DHT22;9989;48.962;9.182;2022-09-09T18:04:05;17.50;99.90
19680;DHT22;9989;48.962;9.182;2022-09-09T18:06:33;17.50;99.90